createdAt,value
2023-01-11T00:00:23.420Z,54.74
2023-01-11T00:02:54.695Z,54.43
2023-01-11T00:05:21.007Z,54.36
2023-01-11T00:07:47.327Z,54.45
2023-01-11T00:10:13.699Z,54.60
2023-01-11T00:12:40.060Z,54.66
2023-01-11T00:15:07.096Z,54.52
2023-01-11T00:17:33.529Z,54.50
2023-01-11T00:19:59.918Z,54.42
2023-01-11T00:22:27.147Z,54.75
2023-01-11T00:24:53.472Z,54.80
2023-01-11T00:27:19.800Z,54.50
2023-01-11T00:29:46.203Z,54.58
2023-01-11T00:32:12.527Z,54.68
2023-01-11T00:34:38.849Z,54.41
2023-01-11T00:37:05.275Z,54.54
2023-01-11T00:39:31.589Z,54.55
2023-01-11T00:42:16.843Z,54.64
2023-01-11T00:45:01.677Z,54.41
2023-01-11T00:47:46.823Z,54.55
2023-01-11T00:50:13.157Z,54.33
2023-01-11T00:52:39.495Z,54.24
2023-01-11T00:55:06.020Z,54.35
2023-01-11T00:57:32.472Z,54.26
2023-01-11T00:59:58.805Z,54.23
2023-01-11T01:02:25.143Z,54.15
2023-01-11T01:04:51.534Z,54.15
2023-01-11T01:07:17.857Z,54.11
2023-01-11T01:09:44.169Z,53.98
2023-01-11T01:12:10.482Z,54.08
2023-01-11T01:14:36.863Z,54.05
2023-01-11T01:17:03.964Z,54.18
2023-01-11T01:19:30.664Z,54.15
2023-01-11T01:21:57.136Z,53.97
2023-01-11T01:24:23.597Z,54.29
2023-01-11T01:26:49.929Z,53.91
2023-01-11T01:29:16.263Z,54.01
2023-01-11T01:31:42.836Z,54.18
2023-01-11T01:34:09.399Z,53.85
2023-01-11T01:36:35.727Z,53.95
2023-01-11T01:39:02.090Z,53.92
2023-01-11T01:41:28.446Z,54.06
2023-01-11T01:43:55.694Z,53.87
2023-01-11T01:46:22.615Z,54.01
2023-01-11T01:49:01.255Z,53.80
2023-01-11T01:51:28.762Z,53.88
2023-01-11T01:53:55.738Z,53.79
2023-01-11T01:56:26.387Z,53.91
2023-01-11T01:58:54.406Z,53.97
2023-01-11T02:01:39.708Z,53.84
2023-01-11T02:04:07.627Z,53.68
2023-01-11T02:06:34.028Z,53.85
2023-01-11T02:09:02.221Z,53.90
2023-01-11T02:11:31.211Z,53.63
2023-01-11T02:14:02.029Z,53.81
2023-01-11T02:16:28.351Z,53.47
2023-01-11T02:19:11.682Z,53.63
2023-01-11T02:21:37.948Z,53.57
2023-01-11T02:24:09.240Z,53.47
2023-01-11T02:26:55.580Z,53.48
2023-01-11T02:29:24.686Z,53.58
2023-01-11T02:31:53.653Z,53.70
2023-01-11T02:34:37.960Z,53.61
2023-01-11T02:37:12.375Z,53.40
2023-01-11T02:39:44.735Z,53.52
2023-01-11T02:42:29.536Z,53.59
2023-01-11T02:45:01.617Z,53.64
2023-01-11T02:47:33.880Z,53.89
2023-01-11T02:50:06.686Z,53.72
2023-01-11T02:52:37.200Z,53.95
2023-01-11T02:55:03.546Z,53.92
2023-01-11T02:57:29.878Z,54.06
2023-01-11T02:59:58.079Z,54.08
2023-01-11T03:02:24.561Z,54.04
2023-01-11T03:04:50.885Z,53.91
2023-01-11T03:07:28.179Z,53.88
2023-01-11T03:10:08.367Z,53.98
2023-01-11T03:12:54.669Z,54.19
2023-01-11T03:15:25.458Z,54.07
2023-01-11T03:18:10.723Z,54.15
2023-01-11T03:20:38.143Z,54.06
2023-01-11T04:52:32.184Z,54.68
2023-01-11T04:54:58.527Z,54.63
2023-01-11T04:57:25.325Z,54.83
2023-01-11T04:59:51.688Z,54.63
2023-01-11T05:02:18.116Z,54.69
2023-01-11T05:04:44.498Z,54.60
2023-01-11T05:07:11.027Z,54.80
2023-01-11T05:09:37.395Z,54.74
2023-01-11T05:12:03.737Z,54.69
2023-01-11T05:14:30.069Z,54.81
2023-01-11T05:16:56.415Z,54.88
2023-01-11T05:19:22.751Z,55.12
2023-01-11T05:21:49.069Z,54.86
2023-01-11T05:24:15.692Z,54.93
2023-01-11T05:26:42.411Z,54.71
2023-01-11T05:29:09.455Z,54.82
2023-01-11T05:31:36.279Z,54.84
2023-01-11T05:34:02.716Z,54.84
2023-01-11T05:36:29.031Z,54.88
2023-01-11T05:38:55.706Z,55.00
2023-01-11T05:41:23.470Z,55.02
2023-01-11T05:44:08.633Z,54.97
2023-01-11T05:46:35.090Z,54.90
2023-01-11T05:49:01.645Z,54.98
2023-01-11T05:51:30.435Z,55.10
2023-01-11T05:53:57.131Z,54.99
2023-01-11T05:56:23.452Z,54.94
2023-01-11T05:58:50.031Z,54.90
2023-01-11T06:01:16.475Z,54.97
2023-01-11T06:03:42.855Z,54.79
2023-01-11T06:06:09.184Z,54.88
2023-01-11T06:08:35.515Z,54.79
2023-01-11T06:11:01.837Z,54.92
2023-01-11T06:13:28.242Z,54.80
2023-01-11T06:15:54.509Z,55.02
2023-01-11T06:18:20.995Z,54.94
2023-01-11T06:20:53.632Z,55.12
2023-01-11T06:23:20.056Z,55.01
2023-01-11T06:25:46.380Z,55.20
2023-01-11T06:28:12.700Z,55.49
2023-01-11T06:30:39.047Z,55.19
2023-01-11T06:33:06.183Z,54.94
2023-01-11T06:35:39.354Z,55.01
2023-01-11T06:38:05.991Z,55.79
2023-01-11T06:40:32.348Z,55.56
2023-01-11T06:42:58.866Z,55.57
2023-01-11T06:45:25.243Z,55.76
2023-01-11T06:47:51.567Z,56.05
2023-01-11T06:50:17.937Z,55.31
2023-01-11T06:52:44.320Z,53.08
2023-01-11T06:55:10.766Z,52.26
2023-01-11T06:57:37.127Z,54.03
2023-01-11T07:00:03.729Z,54.15
2023-01-11T07:02:30.318Z,54.12
2023-01-11T07:04:56.728Z,54.41
2023-01-11T07:07:23.113Z,54.89
2023-01-11T07:09:49.492Z,54.89
2023-01-11T07:12:15.961Z,55.82
2023-01-11T07:14:42.353Z,54.87
2023-01-11T07:17:08.689Z,54.12
2023-01-11T07:19:35.053Z,53.83
2023-01-11T07:22:01.602Z,50.03
2023-01-11T07:24:28.199Z,49.25
2023-01-11T07:26:56.263Z,49.93
2023-01-11T07:29:22.632Z,49.30
2023-01-11T07:31:49.026Z,48.74
2023-01-11T07:34:15.410Z,48.30
2023-01-11T07:36:41.728Z,47.78
2023-01-11T07:39:08.139Z,46.96
2023-01-11T07:41:53.239Z,47.11
2023-01-11T07:44:19.602Z,48.98
2023-01-11T07:46:46.077Z,49.11
2023-01-11T07:49:12.460Z,49.03
2023-01-11T07:51:38.814Z,48.88
2023-01-11T07:54:05.142Z,48.71
2023-01-11T07:56:31.510Z,48.36
2023-01-11T07:58:57.863Z,48.60
2023-01-11T08:01:24.195Z,48.62
2023-01-11T08:03:51.044Z,48.49
2023-01-11T08:06:17.422Z,48.37
2023-01-11T08:08:43.777Z,48.64
2023-01-11T08:11:30.031Z,48.32
2023-01-11T08:14:15.050Z,48.64
2023-01-11T08:16:41.400Z,47.11
2023-01-11T08:19:07.745Z,46.17
2023-01-11T08:21:34.082Z,46.71
2023-01-11T08:24:00.433Z,47.27
2023-01-11T08:26:26.825Z,47.57
2023-01-11T08:28:53.295Z,47.94
2023-01-11T08:31:19.655Z,47.97
2023-01-11T08:33:46.024Z,48.08
2023-01-11T08:36:12.677Z,48.14
2023-01-11T08:38:39.050Z,48.34
2023-01-11T08:41:10.620Z,48.94
2023-01-11T08:43:46.114Z,48.55
2023-01-11T08:46:12.479Z,48.68
2023-01-11T08:48:38.845Z,48.96
2023-01-11T08:51:05.179Z,48.47
2023-01-11T08:53:31.825Z,48.15
2023-01-11T08:55:58.148Z,47.86
2023-01-11T08:58:25.348Z,47.95
2023-01-11T09:00:51.671Z,48.02
2023-01-11T09:03:18.784Z,48.92
2023-01-11T09:05:45.122Z,49.04
2023-01-11T09:08:11.435Z,49.29
2023-01-11T09:10:37.785Z,49.16
2023-01-11T09:13:04.124Z,49.04
2023-01-11T09:15:30.462Z,49.15
2023-01-11T09:17:56.798Z,49.16
2023-01-11T09:20:23.148Z,49.57
2023-01-11T09:22:52.649Z,50.38
2023-01-11T09:25:19.466Z,50.10
2023-01-11T09:27:46.004Z,50.24
2023-01-11T09:30:12.683Z,50.28
2023-01-11T09:32:39.016Z,50.17
2023-01-11T09:35:06.167Z,50.56
2023-01-11T09:37:32.580Z,50.42
2023-01-11T09:40:01.954Z,50.60
2023-01-11T09:42:36.754Z,50.39
2023-01-11T09:45:05.735Z,50.74
2023-01-11T09:47:40.882Z,50.78
2023-01-11T09:50:11.524Z,50.95
2023-01-11T09:52:41.009Z,50.94
2023-01-11T09:55:11.607Z,51.08
2023-01-11T09:57:44.062Z,50.97
2023-01-11T10:00:19.507Z,50.86
2023-01-11T10:03:04.766Z,51.10
2023-01-11T10:05:31.822Z,51.05
2023-01-11T10:14:01.245Z,51.02
2023-01-11T10:18:37.592Z,51.05
2023-01-11T10:19:40.400Z,51.09
2023-01-11T10:22:32.527Z,51.18
2023-01-11T10:25:07.519Z,51.12
2023-01-11T10:27:36.235Z,51.40
2023-01-11T10:30:24.073Z,51.28
2023-01-11T10:32:57.859Z,51.17
2023-01-11T10:35:45.732Z,51.24
2023-01-11T10:38:40.854Z,51.86
2023-01-11T10:41:15.793Z,51.57
2023-01-11T10:43:43.871Z,50.83
2023-01-11T10:46:12.407Z,51.00
2023-01-11T10:48:42.424Z,50.85
2023-01-11T10:51:17.409Z,51.10
2023-01-11T10:53:50.746Z,51.46
2023-01-11T10:56:24.959Z,51.76
2023-01-11T10:59:15.667Z,51.15
2023-01-11T11:01:49.055Z,50.88
2023-01-11T11:04:33.989Z,51.09
2023-01-11T11:07:00.278Z,51.10
2023-01-11T11:09:29.499Z,50.87
2023-01-11T11:11:59.343Z,51.14
2023-01-11T11:14:34.670Z,51.41
2023-01-11T11:17:13.386Z,51.46
2023-01-11T11:19:41.226Z,51.89
2023-01-11T11:22:09.533Z,51.87
2023-01-11T11:24:37.177Z,51.62
2023-01-11T11:27:07.176Z,51.25
2023-01-11T11:29:33.568Z,52.08
2023-01-11T11:32:00.320Z,52.02
2023-01-11T11:34:27.434Z,51.35
2023-01-11T11:36:53.784Z,51.43
2023-01-11T11:39:28.318Z,51.51
2023-01-11T11:42:04.150Z,51.21
2023-01-11T11:44:30.474Z,51.28
2023-01-11T11:47:04.283Z,51.37
2023-01-11T11:49:31.636Z,51.15
2023-01-11T11:51:58.613Z,51.04
2023-01-11T11:54:26.079Z,51.70
2023-01-11T11:56:54.292Z,51.36
2023-01-11T11:59:21.037Z,51.54
2023-01-11T12:01:48.444Z,51.25
2023-01-11T12:04:18.652Z,51.44
2023-01-11T12:06:50.887Z,51.09
2023-01-11T12:09:21.179Z,51.69
2023-01-11T12:11:47.535Z,52.24
2023-01-11T12:14:17.746Z,52.89
2023-01-11T12:16:44.431Z,52.83
2023-01-11T12:19:29.415Z,52.69
2023-01-11T12:22:14.823Z,52.99
2023-01-11T12:24:41.169Z,53.13
2023-01-11T12:27:20.331Z,52.71
2023-01-11T12:30:01.902Z,52.84
2023-01-11T12:32:42.296Z,52.73
2023-01-11T12:35:12.477Z,53.10
2023-01-11T12:37:57.585Z,53.07
2023-01-11T12:40:34.556Z,52.91
2023-01-11T12:43:07.239Z,52.60
2023-01-11T12:45:33.583Z,52.76
2023-01-11T12:48:13.302Z,52.76
2023-01-11T12:50:50.767Z,53.23
2023-01-11T12:53:22.810Z,53.15
2023-01-11T12:56:07.955Z,52.91
2023-01-11T12:58:36.006Z,53.05
2023-01-11T13:01:20.532Z,52.90
2023-01-11T13:03:49.863Z,53.23
2023-01-11T13:06:17.617Z,52.20
2023-01-11T13:08:55.526Z,52.21
2023-01-11T13:11:36.908Z,52.06
2023-01-11T13:14:06.237Z,52.35
2023-01-11T13:16:38.427Z,52.41
2023-01-11T13:19:07.471Z,52.28
2023-01-11T13:21:52.831Z,52.29
2023-01-11T13:24:27.254Z,52.23
2023-01-11T13:26:54.654Z,52.24
2023-01-11T13:29:24.619Z,51.88
2023-01-11T13:31:51.063Z,52.15
2023-01-11T13:34:25.289Z,52.02
2023-01-11T13:36:52.829Z,52.57
2023-01-11T13:39:22.044Z,52.83
2023-01-11T13:41:49.096Z,52.53
2023-01-11T13:44:18.642Z,52.62
2023-01-11T13:47:03.011Z,52.38
2023-01-11T13:49:34.808Z,52.54
2023-01-11T13:52:03.996Z,52.66
2023-01-11T13:54:41.875Z,52.96
2023-01-11T13:57:10.906Z,52.86
2023-01-11T13:59:41.357Z,52.36
2023-01-11T14:02:26.137Z,52.73
2023-01-11T14:04:58.474Z,52.35
2023-01-11T14:07:43.676Z,52.29
2023-01-11T14:10:19.664Z,52.41
2023-01-11T14:12:49.981Z,52.54
2023-01-11T14:15:19.536Z,52.34
2023-01-11T14:17:51.485Z,52.76
2023-01-11T14:20:20.433Z,52.33
2023-01-11T14:23:07.450Z,52.53
2023-01-11T14:25:36.715Z,52.77
2023-01-11T14:28:12.078Z,53.00
2023-01-11T14:30:55.226Z,52.73
2023-01-11T14:33:28.795Z,52.96
2023-01-11T14:36:11.519Z,52.86
2023-01-11T14:38:41.869Z,52.81
2023-01-11T14:41:11.831Z,52.69
2023-01-11T14:43:43.896Z,52.64
2023-01-11T14:46:19.946Z,52.76
2023-01-11T14:48:49.323Z,53.42
2023-01-11T14:51:23.823Z,53.42
2023-01-11T14:53:54.571Z,53.30
2023-01-11T14:56:39.664Z,53.39
2023-01-11T14:59:06.688Z,53.36
2023-01-11T15:02:06.748Z,53.19
2023-01-11T15:04:33.941Z,53.18
2023-01-11T15:07:00.360Z,53.22
2023-01-11T15:09:45.395Z,53.42
2023-01-11T15:12:12.334Z,53.49
2023-01-11T15:14:38.753Z,53.46
2023-01-11T15:17:23.875Z,53.55
2023-01-11T15:19:51.307Z,53.40
2023-01-11T15:22:43.950Z,53.67
2023-01-11T15:25:26.500Z,53.25
2023-01-11T15:27:52.874Z,53.02
2023-01-11T15:30:31.167Z,53.08
2023-01-11T15:33:16.363Z,53.03
2023-01-11T15:36:02.429Z,53.09
2023-01-11T15:38:37.181Z,53.26
2023-01-11T15:41:23.824Z,53.14
2023-01-11T15:44:08.825Z,53.09
2023-01-11T15:46:54.409Z,53.32
2023-01-11T15:49:21.259Z,53.23
2023-01-11T15:51:53.608Z,53.01
2023-01-11T15:54:35.020Z,53.18
2023-01-11T15:57:12.248Z,53.15
2023-01-11T15:59:56.777Z,53.02
2023-01-11T16:02:42.124Z,53.07
2023-01-11T16:05:21.437Z,52.68
2023-01-11T16:07:57.728Z,53.23
2023-01-11T16:10:29.689Z,53.47
2023-01-11T16:13:05.210Z,53.03
2023-01-11T16:15:43.512Z,53.08
2023-01-11T16:18:14.508Z,53.08
2023-01-11T16:20:42.028Z,53.35
2023-01-11T16:23:08.880Z,53.25
2023-01-11T16:25:36.767Z,53.09
2023-01-11T16:28:03.104Z,52.92
2023-01-11T16:30:29.464Z,53.08
2023-01-11T16:33:22.205Z,53.03
2023-01-11T16:35:48.578Z,52.78
2023-01-11T16:38:18.626Z,52.83
2023-01-11T16:40:49.706Z,53.04
2023-01-11T16:43:23.193Z,52.97
2023-01-11T16:45:50.232Z,52.91
2023-01-11T16:48:20.668Z,52.76
2023-01-11T16:50:56.638Z,52.72
2023-01-11T16:53:24.180Z,52.85
2023-01-11T16:55:54.508Z,52.83
2023-01-11T16:58:22.498Z,52.89
2023-01-11T17:01:01.753Z,53.00
2023-01-11T17:03:31.559Z,53.06
2023-01-11T17:06:04.088Z,52.91
2023-01-11T17:08:33.204Z,52.79
2023-01-11T17:11:18.047Z,53.23
2023-01-11T17:13:54.951Z,53.22
2023-01-11T17:16:22.383Z,53.47
2023-01-11T17:18:48.758Z,53.14
2023-01-11T17:21:16.908Z,53.11
2023-01-11T17:23:44.690Z,53.15
2023-01-11T17:26:15.006Z,53.06
2023-01-11T17:28:43.611Z,53.11
2023-01-11T17:31:10.267Z,53.13
2023-01-11T17:33:36.615Z,53.43
2023-01-11T17:36:02.946Z,53.22
2023-01-11T17:38:29.311Z,53.46
2023-01-11T17:40:56.712Z,53.18
2023-01-11T17:43:42.443Z,53.40
2023-01-11T17:46:09.651Z,53.34
2023-01-11T17:48:36.063Z,53.20
2023-01-11T17:51:02.782Z,53.26
2023-01-11T17:53:29.119Z,53.17
2023-01-11T17:55:58.943Z,53.17
2023-01-11T17:58:31.866Z,53.42
2023-01-11T18:01:00.982Z,53.11
2023-01-11T18:03:27.355Z,53.38
2023-01-11T18:05:53.700Z,53.24
2023-01-11T18:08:20.281Z,52.91
2023-01-11T18:10:55.914Z,53.17
2023-01-11T18:13:26.308Z,53.14
2023-01-11T18:15:52.641Z,53.22
2023-01-11T18:18:38.337Z,53.13
2023-01-11T18:21:06.256Z,53.17
2023-01-11T18:23:32.590Z,53.04
2023-01-11T18:26:17.655Z,53.45
2023-01-11T18:28:44.146Z,53.37
2023-01-11T18:31:10.486Z,53.28
2023-01-11T18:33:36.835Z,53.03
2023-01-11T18:36:03.427Z,53.03
2023-01-11T18:38:33.569Z,53.12
2023-01-11T18:41:20.355Z,53.30
2023-01-11T18:43:46.689Z,53.14
2023-01-11T18:46:13.104Z,53.33
2023-01-11T18:48:39.461Z,53.43
2023-01-11T18:51:05.845Z,53.80
2023-01-11T18:53:32.173Z,54.03
2023-01-11T18:55:58.503Z,53.91
2023-01-11T18:58:24.833Z,54.00
2023-01-11T19:00:51.164Z,53.20
2023-01-11T19:03:17.546Z,53.64
2023-01-11T19:05:43.925Z,53.60
2023-01-11T19:08:10.270Z,54.06
2023-01-11T19:10:36.638Z,53.76
2023-01-11T19:13:03.020Z,54.62
2023-01-11T19:15:29.409Z,54.35
2023-01-11T19:17:55.825Z,54.31
2023-01-11T19:20:22.191Z,54.54
2023-01-11T19:22:48.865Z,54.69
2023-01-11T19:25:15.379Z,54.20
2023-01-11T19:27:41.818Z,54.14
2023-01-11T19:30:08.385Z,54.75
2023-01-11T19:32:34.720Z,54.69
2023-01-11T19:35:01.457Z,54.62
2023-01-11T19:37:27.924Z,55.32
2023-01-11T19:39:54.272Z,55.86
2023-01-11T19:42:21.022Z,55.00
2023-01-11T19:44:47.350Z,55.74
2023-01-11T19:47:15.654Z,55.63
2023-01-11T19:49:42.272Z,55.70
2023-01-11T19:52:13.172Z,55.52
2023-01-11T19:54:41.678Z,54.63
2023-01-11T19:57:08.740Z,55.00
2023-01-11T19:59:35.090Z,54.80
2023-01-11T20:02:01.423Z,54.46
2023-01-11T20:04:27.831Z,54.25
2023-01-11T20:06:55.018Z,54.32
2023-01-11T20:09:21.571Z,54.23
2023-01-11T20:11:49.277Z,54.02
2023-01-11T20:14:16.215Z,54.21
2023-01-11T20:16:42.543Z,54.05
2023-01-11T20:19:08.866Z,53.82
2023-01-11T20:21:35.233Z,53.90
2023-01-11T20:24:01.932Z,53.87
2023-01-11T20:26:30.538Z,53.87
2023-01-11T20:28:57.016Z,54.12
2023-01-11T20:31:27.869Z,53.93
2023-01-11T20:33:54.777Z,53.98
2023-01-11T20:36:21.356Z,53.96
2023-01-11T20:38:47.680Z,54.17
2023-01-11T20:41:34.949Z,54.04
2023-01-11T20:44:01.588Z,54.06
2023-01-11T20:46:28.206Z,54.38
2023-01-11T20:48:54.561Z,54.32
2023-01-11T20:51:20.919Z,54.29
2023-01-11T20:53:47.331Z,54.01
2023-01-11T20:56:13.789Z,54.17
2023-01-11T20:58:40.137Z,54.17
2023-01-11T21:01:06.938Z,54.42
2023-01-11T21:03:33.284Z,54.19
2023-01-11T21:06:05.961Z,54.17
2023-01-11T21:08:32.400Z,54.24
2023-01-11T21:11:05.352Z,54.19
2023-01-11T21:13:31.820Z,54.26
2023-01-11T21:15:58.197Z,54.26
2023-01-11T21:18:24.647Z,54.23
2023-01-11T21:20:51.088Z,54.41
2023-01-11T21:23:17.421Z,54.25
2023-01-11T21:25:43.779Z,54.59
2023-01-11T21:28:10.137Z,54.49
2023-01-11T21:30:36.470Z,54.30
2023-01-11T21:33:02.832Z,54.41
2023-01-11T21:35:29.390Z,54.41
2023-01-11T21:37:55.729Z,54.57
2023-01-11T21:40:22.072Z,54.43
2023-01-11T21:42:48.408Z,54.55
2023-01-11T21:45:14.848Z,54.43
2023-01-11T21:47:43.476Z,54.55
2023-01-11T21:50:10.204Z,54.41
2023-01-11T21:52:36.598Z,54.45
2023-01-11T21:55:02.934Z,54.66
2023-01-11T21:57:29.302Z,54.73
2023-01-11T21:59:55.661Z,54.69
2023-01-11T22:02:22.020Z,54.64
2023-01-11T22:04:48.671Z,54.69
2023-01-11T22:07:15.103Z,54.66
2023-01-11T22:09:53.380Z,54.75
2023-01-11T22:12:27.877Z,54.56
2023-01-11T22:14:54.266Z,54.81
2023-01-11T22:17:20.629Z,54.87
2023-01-11T22:19:46.972Z,54.82
2023-01-11T22:22:13.328Z,54.77
2023-01-11T22:24:39.663Z,54.92
2023-01-11T22:27:06.052Z,54.82
2023-01-11T22:29:32.461Z,55.06
2023-01-11T22:32:01.325Z,54.92
2023-01-11T22:34:27.726Z,54.92
2023-01-11T22:36:54.398Z,54.99
2023-01-11T22:39:20.811Z,54.86
2023-01-11T22:41:48.219Z,54.68
2023-01-11T22:44:14.652Z,54.78
2023-01-11T22:46:41.022Z,54.92
2023-01-11T22:49:07.475Z,54.93
2023-01-11T22:51:34.076Z,54.96
2023-01-11T22:54:00.459Z,54.82
2023-01-11T22:56:26.832Z,54.93
2023-01-11T22:58:53.477Z,54.66
2023-01-11T23:01:20.793Z,54.97
2023-01-11T23:03:47.182Z,54.72
2023-01-11T23:06:15.732Z,55.04
2023-01-11T23:08:42.477Z,54.62
2023-01-11T23:11:15.609Z,54.82
2023-01-11T23:13:54.969Z,54.85
2023-01-11T23:16:21.744Z,54.65
2023-01-11T23:18:48.386Z,54.70
2023-01-11T23:21:15.655Z,54.68
2023-01-11T23:23:41.987Z,54.78
2023-01-11T23:26:08.454Z,54.86
2023-01-11T23:28:34.902Z,54.85
2023-01-11T23:31:06.884Z,55.01
2023-01-11T23:33:33.214Z,54.88
2023-01-11T23:35:59.604Z,54.72
2023-01-11T23:38:25.939Z,54.70
2023-01-11T23:41:10.886Z,54.72
2023-01-11T23:43:38.531Z,54.68
2023-01-11T23:46:23.643Z,54.71
2023-01-11T23:48:50.151Z,54.81
2023-01-11T23:51:16.588Z,54.70
2023-01-11T23:53:42.922Z,54.86
2023-01-11T23:56:09.281Z,54.45
2023-01-11T23:58:35.609Z,54.52
